createdAt,value
2023-01-10T00:01:25.412Z,6.80
2023-01-10T00:04:31.155Z,6.90
2023-01-10T00:07:33.096Z,6.80
2023-01-10T00:10:35.989Z,6.90
2023-01-10T00:13:37.995Z,6.80
2023-01-10T00:16:40.736Z,6.80
2023-01-10T00:19:42.691Z,6.70
2023-01-10T00:22:45.619Z,6.70
2023-01-10T00:25:47.580Z,6.90
2023-01-10T00:28:49.400Z,6.80
2023-01-10T00:31:51.268Z,6.80
2023-01-10T00:34:53.125Z,6.90
2023-01-10T00:38:01.364Z,6.80
2023-01-10T00:41:24.544Z,6.80
2023-01-10T00:44:26.619Z,6.70
2023-01-10T00:47:28.466Z,6.70
2023-01-10T00:50:30.317Z,6.80
2023-01-10T00:53:32.216Z,6.80
2023-01-10T00:56:34.430Z,6.80
2023-01-10T00:59:36.439Z,6.80
2023-01-10T01:02:38.735Z,6.80
2023-01-10T01:05:42.064Z,6.80
2023-01-10T01:08:44.277Z,6.70
2023-01-10T01:11:46.190Z,6.70
2023-01-10T01:14:47.969Z,6.70
2023-01-10T01:17:49.959Z,6.70
2023-01-10T01:20:57.050Z,6.60
2023-01-10T01:23:58.892Z,6.60
2023-01-10T01:27:00.840Z,6.60
2023-01-10T01:30:02.902Z,6.70
2023-01-10T01:33:05.124Z,6.60
2023-01-10T01:36:11.898Z,6.60
2023-01-10T01:39:13.948Z,6.60
2023-01-10T01:42:35.522Z,6.70
2023-01-10T01:45:39.359Z,6.70
2023-01-10T01:48:43.632Z,6.70
2023-01-10T01:51:48.091Z,6.60
2023-01-10T01:54:50.093Z,6.60
2023-01-10T01:57:55.618Z,6.60
2023-01-10T02:00:58.641Z,6.60
2023-01-10T02:04:12.839Z,6.60
2023-01-10T02:07:15.252Z,6.50
2023-01-10T02:10:23.287Z,6.60
2023-01-10T02:13:26.686Z,6.50
2023-01-10T02:16:28.619Z,6.50
2023-01-10T02:19:55.108Z,6.40
2023-01-10T02:23:19.061Z,6.50
2023-01-10T02:26:39.329Z,6.40
2023-01-10T02:29:50.766Z,6.40
2023-01-10T02:33:22.754Z,6.40
2023-01-10T02:36:55.524Z,6.30
2023-01-10T02:40:00.554Z,6.40
2023-01-10T02:43:16.279Z,6.40
2023-01-10T02:46:27.588Z,6.40
2023-01-10T02:49:29.784Z,6.40
2023-01-10T02:52:32.161Z,6.30
2023-01-10T02:55:58.545Z,6.40
2023-01-10T02:59:19.015Z,6.30
2023-01-10T03:02:48.287Z,6.40
2023-01-10T03:06:18.786Z,6.40
2023-01-10T03:09:36.789Z,6.40
2023-01-10T03:12:57.520Z,6.40
2023-01-10T03:16:01.731Z,6.40
2023-01-10T03:19:10.814Z,6.40
2023-01-10T03:22:14.036Z,6.40
2023-01-10T03:25:21.353Z,6.40
2023-01-10T03:28:51.674Z,6.40
2023-01-10T03:32:00.373Z,6.40
2023-01-10T03:35:03.931Z,6.50
2023-01-10T03:38:18.095Z,6.50
2023-01-10T03:41:27.244Z,6.40
2023-01-10T03:44:45.679Z,6.40
2023-01-10T03:47:51.949Z,6.50
2023-01-10T03:50:54.816Z,6.40
2023-01-10T03:54:00.874Z,6.40
2023-01-10T03:57:02.988Z,6.50
2023-01-10T04:00:05.565Z,6.40
2023-01-10T04:03:09.873Z,6.40
2023-01-10T04:06:11.798Z,6.40
2023-01-10T04:09:13.752Z,6.40
2023-01-10T04:12:16.099Z,6.30
2023-01-10T04:15:17.976Z,6.30
2023-01-10T04:18:20.059Z,6.30
2023-01-10T04:21:22.290Z,6.30
2023-01-10T04:24:24.407Z,6.30
2023-01-10T04:27:26.270Z,6.30
2023-01-10T04:30:28.358Z,6.20
2023-01-10T04:33:30.380Z,6.20
2023-01-10T04:36:32.594Z,6.10
2023-01-10T04:39:34.463Z,6.20
2023-01-10T04:42:36.511Z,6.20
2023-01-10T04:45:38.471Z,6.20
2023-01-10T04:48:40.362Z,6.20
2023-01-10T04:51:42.404Z,6.30
2023-01-10T04:54:44.352Z,6.20
2023-01-10T04:57:46.259Z,6.20
2023-01-10T05:00:48.448Z,6.20
2023-01-10T05:03:51.986Z,6.20
2023-01-10T05:06:54.316Z,6.20
2023-01-10T05:09:56.207Z,6.20
2023-01-10T05:12:58.310Z,6.20
2023-01-10T05:16:00.286Z,6.20
2023-01-10T05:19:04.986Z,6.20
2023-01-10T05:22:06.968Z,6.20
2023-01-10T05:25:11.779Z,6.20
2023-01-10T05:29:02.183Z,6.20
2023-01-10T05:32:04.292Z,6.10
2023-01-10T05:35:15.693Z,6.10
2023-01-10T05:38:17.754Z,6.10
2023-01-10T05:41:20.262Z,6.10
2023-01-10T05:44:22.231Z,6.10
2023-01-10T05:47:25.406Z,6.10
2023-01-10T05:50:27.228Z,6.10
2023-01-10T05:53:29.063Z,6.10
2023-01-10T05:56:30.950Z,6.10
2023-01-10T05:59:33.080Z,6.00
2023-01-10T06:02:35.243Z,6.10
2023-01-10T06:05:37.737Z,6.10
2023-01-10T06:08:40.837Z,6.10
2023-01-10T06:11:42.596Z,6.00
2023-01-10T06:14:45.121Z,6.00
2023-01-10T06:17:46.993Z,6.10
2023-01-10T06:20:49.007Z,6.00
2023-01-10T06:23:51.068Z,6.00
2023-01-10T06:26:52.882Z,6.00
2023-01-10T06:29:54.721Z,6.00
2023-01-10T06:33:07.602Z,6.00
2023-01-10T06:36:09.812Z,5.90
2023-01-10T06:39:11.867Z,5.90
2023-01-10T06:42:13.647Z,5.90
2023-01-10T06:45:15.681Z,5.80
2023-01-10T06:48:17.856Z,5.80
2023-01-10T06:51:20.388Z,5.70
2023-01-10T06:54:22.367Z,5.80
2023-01-10T06:57:24.306Z,5.80
2023-01-10T07:00:28.193Z,5.80
2023-01-10T07:03:30.662Z,5.80
2023-01-10T07:06:37.271Z,5.80
2023-01-10T07:09:39.220Z,5.80
2023-01-10T07:12:41.070Z,5.70
2023-01-10T07:15:43.010Z,5.70
2023-01-10T07:18:45.061Z,5.60
2023-01-10T07:21:47.251Z,5.70
2023-01-10T07:24:49.196Z,5.60
2023-01-10T07:27:51.019Z,5.60
2023-01-10T07:30:52.987Z,5.70
2023-01-10T07:33:54.984Z,5.70
2023-01-10T07:36:57.074Z,5.60
2023-01-10T07:39:58.887Z,5.60
2023-01-10T07:43:02.489Z,5.70
2023-01-10T07:46:09.477Z,5.70
2023-01-10T07:49:11.688Z,5.70
2023-01-10T07:52:28.043Z,5.70
2023-01-10T07:55:30.239Z,5.70
2023-01-10T07:58:33.243Z,5.60
2023-01-10T08:01:35.224Z,5.70
2023-01-10T08:04:38.292Z,5.60
2023-01-10T08:07:40.771Z,5.60
2023-01-10T08:10:42.580Z,5.60
2023-01-10T08:13:44.531Z,5.60
2023-01-10T08:16:46.508Z,5.70
2023-01-10T08:19:51.409Z,5.60
2023-01-10T08:22:53.365Z,5.70
2023-01-10T08:25:59.360Z,5.70
2023-01-10T08:29:01.769Z,5.80
2023-01-10T08:32:03.774Z,5.80
2023-01-10T08:35:06.431Z,5.80
2023-01-10T08:38:09.741Z,5.80
2023-01-10T08:41:12.277Z,5.90
2023-01-10T08:44:15.676Z,5.90
2023-01-10T08:47:17.686Z,5.90
2023-01-10T08:50:19.540Z,6.00
2023-01-10T08:53:21.486Z,6.10
2023-01-10T08:56:23.348Z,6.20
2023-01-10T08:59:25.370Z,6.20
2023-01-10T09:02:28.801Z,6.30
2023-01-10T09:05:30.700Z,6.30
2023-01-10T09:08:32.801Z,6.40
2023-01-10T09:11:34.843Z,6.40
2023-01-10T09:14:36.826Z,6.50
2023-01-10T09:17:38.894Z,6.60
2023-01-10T09:20:42.676Z,6.60
2023-01-10T09:23:44.779Z,6.70
2023-01-10T09:26:46.605Z,6.70
2023-01-10T09:29:48.438Z,6.80
2023-01-10T09:32:52.247Z,6.80
2023-01-10T09:35:57.910Z,6.80
2023-01-10T09:38:59.671Z,6.80
2023-01-10T09:42:01.692Z,6.80
2023-01-10T09:45:39.527Z,6.80
2023-01-10T09:48:44.143Z,6.90
2023-01-10T09:51:50.083Z,7.00
2023-01-10T09:54:54.648Z,7.00
2023-01-10T09:58:00.221Z,7.00
2023-01-10T10:01:07.717Z,7.10
2023-01-10T10:04:28.169Z,7.10
2023-01-10T10:07:29.971Z,7.10
2023-01-10T10:10:52.008Z,7.20
2023-01-10T10:14:26.322Z,7.20
2023-01-10T10:17:43.876Z,7.30
2023-01-10T10:21:03.335Z,7.40
2023-01-10T10:24:24.821Z,7.40
2023-01-10T10:27:46.136Z,7.40
2023-01-10T10:31:27.017Z,7.40
2023-01-10T10:34:39.164Z,7.40
2023-01-10T10:37:53.295Z,7.40
2023-01-10T10:40:56.769Z,7.40
2023-01-10T10:44:03.993Z,7.40
2023-01-10T10:47:20.246Z,7.40
2023-01-10T10:50:32.503Z,7.40
2023-01-10T10:53:35.451Z,7.50
2023-01-10T10:56:37.411Z,7.50
2023-01-10T10:59:39.804Z,7.50
2023-01-10T11:02:50.315Z,7.50
2023-01-10T11:05:53.040Z,7.50
2023-01-10T11:08:58.643Z,7.50
2023-01-10T11:12:00.706Z,7.50
2023-01-10T11:15:02.578Z,7.40
2023-01-10T11:18:17.203Z,7.50
2023-01-10T11:21:22.043Z,7.50
2023-01-10T11:24:33.579Z,7.50
2023-01-10T11:27:55.083Z,7.50
2023-01-10T11:30:57.612Z,7.50
2023-01-10T11:34:00.901Z,7.60
2023-01-10T11:37:17.103Z,7.60
2023-01-10T11:40:27.293Z,7.60
2023-01-10T11:43:34.220Z,7.60
2023-01-10T11:46:36.197Z,7.60
2023-01-10T11:49:40.312Z,7.60
2023-01-10T11:52:45.770Z,7.70
2023-01-10T11:55:48.550Z,7.60
2023-01-10T11:58:50.762Z,7.70
2023-01-10T12:02:21.393Z,7.70
2023-01-10T12:05:24.459Z,7.70
2023-01-10T12:08:29.176Z,7.70
2023-01-10T12:11:33.197Z,7.70
2023-01-10T12:14:36.064Z,7.80
2023-01-10T12:17:38.187Z,7.80
2023-01-10T12:20:47.398Z,7.80
2023-01-10T12:23:50.860Z,7.80
2023-01-10T12:26:54.111Z,7.80
2023-01-10T12:30:04.695Z,7.90
2023-01-10T12:33:41.426Z,7.90
2023-01-10T12:36:53.960Z,7.90
2023-01-10T12:40:17.266Z,7.90
2023-01-10T12:43:47.992Z,7.90
2023-01-10T12:47:09.851Z,7.90
2023-01-10T12:50:30.096Z,7.90
2023-01-10T12:53:44.373Z,7.90
2023-01-10T12:56:47.924Z,7.90
2023-01-10T12:59:50.580Z,8.00
2023-01-10T13:02:56.757Z,8.00
2023-01-10T13:05:59.645Z,8.00
2023-01-10T13:09:07.816Z,8.00
2023-01-10T13:12:25.062Z,8.00
2023-01-10T13:15:39.109Z,8.00
2023-01-10T13:18:59.863Z,8.00
2023-01-10T13:22:16.414Z,7.90
2023-01-10T13:25:37.889Z,7.90
2023-01-10T13:28:58.411Z,8.00
2023-01-10T13:32:02.461Z,8.00
2023-01-10T13:35:19.021Z,8.00
2023-01-10T13:38:26.599Z,8.00
2023-01-10T13:42:16.017Z,7.90
2023-01-10T13:45:26.787Z,7.90
2023-01-10T13:48:29.022Z,7.80
2023-01-10T13:51:31.966Z,7.80
2023-01-10T13:54:33.857Z,7.80
2023-01-10T13:57:59.430Z,7.80
2023-01-10T14:01:21.001Z,7.70
2023-01-10T14:04:36.418Z,7.60
2023-01-10T14:07:55.028Z,7.60
2023-01-10T14:11:12.780Z,7.60
2023-01-10T14:14:20.036Z,7.60
2023-01-10T14:17:33.870Z,7.60
2023-01-10T14:20:36.898Z,7.50
2023-01-10T14:23:48.294Z,7.60
2023-01-10T14:26:50.952Z,7.60
2023-01-10T14:30:00.624Z,7.50
2023-01-10T14:33:23.504Z,7.50
2023-01-10T14:36:30.470Z,7.50
2023-01-10T14:39:32.583Z,7.40
2023-01-10T14:42:36.246Z,7.50
2023-01-10T14:46:03.572Z,7.50
2023-01-10T14:49:35.265Z,7.40
2023-01-10T14:52:42.120Z,7.40
2023-01-10T14:55:43.906Z,7.40
2023-01-10T14:58:45.840Z,7.30
2023-01-10T15:01:49.689Z,7.30
2023-01-10T15:04:56.814Z,7.30
2023-01-10T15:08:22.828Z,7.20
2023-01-10T15:11:26.818Z,7.30
2023-01-10T15:14:30.228Z,7.30
2023-01-10T15:17:32.134Z,7.20
2023-01-10T15:20:34.482Z,7.20
2023-01-10T15:23:41.942Z,7.30
2023-01-10T15:26:43.886Z,7.20
2023-01-10T15:29:47.183Z,7.20
2023-01-10T15:33:02.034Z,7.20
2023-01-10T15:36:13.897Z,7.20
2023-01-10T15:39:25.729Z,7.20
2023-01-10T15:42:27.820Z,7.20
2023-01-10T15:45:37.589Z,7.20
2023-01-10T15:48:42.759Z,7.10
2023-01-10T15:51:48.175Z,7.10
2023-01-10T15:54:50.240Z,7.20
2023-01-10T15:57:52.301Z,7.20
2023-01-10T16:00:56.171Z,7.20
2023-01-10T16:04:04.647Z,7.20
2023-01-10T16:07:16.598Z,7.20
2023-01-10T16:10:27.488Z,7.20
2023-01-10T16:13:32.821Z,7.20
2023-01-10T16:16:34.952Z,7.20
2023-01-10T16:19:37.059Z,7.20
2023-01-10T16:22:39.493Z,7.20
2023-01-10T16:25:45.594Z,7.10
2023-01-10T16:28:47.421Z,7.10
2023-01-10T16:31:50.153Z,7.20
2023-01-10T16:34:52.287Z,7.20
2023-01-10T16:37:56.963Z,7.20
2023-01-10T16:41:21.261Z,7.20
2023-01-10T16:44:23.328Z,7.20
2023-01-10T16:47:25.342Z,7.30
2023-01-10T16:50:27.425Z,7.30
2023-01-10T16:53:31.938Z,7.30
2023-01-10T16:56:33.795Z,7.30
2023-01-10T16:59:35.883Z,7.30
2023-01-10T17:02:38.076Z,7.40
2023-01-10T17:05:41.157Z,7.30
2023-01-10T17:08:44.187Z,7.40
2023-01-10T17:11:50.849Z,7.40
2023-01-10T17:16:29.266Z,7.30
2023-01-10T17:20:33.873Z,7.30
2023-01-10T17:24:36.643Z,7.40
2023-01-10T17:27:38.969Z,7.40
2023-01-10T17:30:44.012Z,7.40
2023-01-10T17:33:46.562Z,7.50
2023-01-10T17:36:48.703Z,7.40
2023-01-10T17:39:54.119Z,7.40
2023-01-10T17:43:10.556Z,7.50
2023-01-10T17:46:17.494Z,7.50
2023-01-10T17:49:22.856Z,7.60
2023-01-10T17:52:24.893Z,7.50
2023-01-10T17:55:26.960Z,7.50
2023-01-10T17:58:31.731Z,7.60
2023-01-10T18:01:39.376Z,7.60
2023-01-10T18:04:42.000Z,7.70
2023-01-10T18:07:52.812Z,7.70
2023-01-10T18:11:01.416Z,7.70
2023-01-10T18:15:35.860Z,7.70
2023-01-10T18:22:57.967Z,7.80
2023-01-10T18:26:11.864Z,7.90
2023-01-10T18:29:14.214Z,7.90
2023-01-10T18:33:38.671Z,7.90
2023-01-10T18:44:46.687Z,8.00
2023-01-10T18:48:02.399Z,8.00
2023-01-10T18:51:15.784Z,8.00
2023-01-10T18:54:18.421Z,8.00
2023-01-10T18:57:30.754Z,8.10
2023-01-10T19:00:45.065Z,8.10
2023-01-10T19:03:56.417Z,8.10
2023-01-10T19:07:08.530Z,8.10
2023-01-10T19:10:11.215Z,8.10
2023-01-10T19:13:22.917Z,8.10
2023-01-10T19:16:29.920Z,8.10
2023-01-10T19:19:32.127Z,8.10
2023-01-10T19:22:34.430Z,8.10
2023-01-10T19:25:37.763Z,8.10
2023-01-10T19:28:39.860Z,8.10
2023-01-10T19:31:42.610Z,8.20
2023-01-10T19:34:46.363Z,8.20
2023-01-10T19:37:49.181Z,8.20
2023-01-10T19:40:52.929Z,8.20
2023-01-10T19:44:14.712Z,8.20
2023-01-10T19:47:16.648Z,8.20
2023-01-10T19:50:19.060Z,8.30
2023-01-10T19:53:25.368Z,8.30
2023-01-10T19:56:30.627Z,8.30
2023-01-10T19:59:36.114Z,8.30
2023-01-10T20:02:38.117Z,8.30
2023-01-10T20:05:40.131Z,8.30
2023-01-10T20:08:42.026Z,8.40
2023-01-10T20:11:46.281Z,8.30
2023-01-10T20:14:54.661Z,8.40
2023-01-10T20:17:56.555Z,8.40
2023-01-10T20:20:58.993Z,8.40
2023-01-10T20:24:00.957Z,8.30
2023-01-10T20:27:09.404Z,8.40
2023-01-10T20:30:14.095Z,8.40
2023-01-10T20:33:16.056Z,8.50
2023-01-10T20:36:20.751Z,8.50
2023-01-10T20:39:23.656Z,8.50
2023-01-10T20:42:25.997Z,8.50
2023-01-10T20:45:28.245Z,8.50
2023-01-10T20:48:30.512Z,8.50
2023-01-10T20:51:37.788Z,8.50
2023-01-10T20:54:39.978Z,8.50
2023-01-10T20:57:41.942Z,8.60
2023-01-10T21:00:44.324Z,8.60
2023-01-10T21:03:47.271Z,8.60
2023-01-10T21:06:49.131Z,8.60
2023-01-10T21:09:51.091Z,8.60
2023-01-10T21:12:53.155Z,8.70
2023-01-10T21:15:57.030Z,8.70
2023-01-10T21:19:01.395Z,8.70
2023-01-10T21:22:03.799Z,8.70
2023-01-10T21:25:06.169Z,8.70
2023-01-10T21:28:11.295Z,8.70
2023-01-10T21:31:18.358Z,8.70
2023-01-10T21:34:20.405Z,8.70
2023-01-10T21:37:22.330Z,8.80
2023-01-10T21:40:26.341Z,8.80
2023-01-10T21:43:31.077Z,8.80
2023-01-10T21:46:33.274Z,8.80
2023-01-10T21:49:35.331Z,8.80
2023-01-10T21:52:40.573Z,8.80
2023-01-10T21:55:44.487Z,8.90
2023-01-10T21:58:48.090Z,8.90
2023-01-10T22:01:50.148Z,8.90
2023-01-10T22:04:54.975Z,9.00
2023-01-10T22:08:05.774Z,8.90
2023-01-10T22:11:19.144Z,9.00
2023-01-10T22:14:35.694Z,9.00
2023-01-10T22:17:49.254Z,9.00
2023-01-10T22:21:02.478Z,8.90
2023-01-10T22:24:48.412Z,9.00
2023-01-10T22:27:50.361Z,9.00
2023-01-10T22:30:54.866Z,9.10
2023-01-10T22:33:56.809Z,9.10
2023-01-10T22:36:58.876Z,9.10
2023-01-10T22:40:59.726Z,9.20
2023-01-10T22:44:20.111Z,9.20
2023-01-10T22:47:33.325Z,9.20
2023-01-10T22:50:35.289Z,9.20
2023-01-10T22:53:37.165Z,9.30
2023-01-10T22:56:39.732Z,9.30
2023-01-10T22:59:41.668Z,9.30
2023-01-10T23:02:43.721Z,9.30
2023-01-10T23:05:45.627Z,9.40
2023-01-10T23:08:48.026Z,9.30
2023-01-10T23:11:49.940Z,9.30
2023-01-10T23:14:51.932Z,9.40
2023-01-10T23:17:53.843Z,9.40
2023-01-10T23:20:56.029Z,9.40
2023-01-10T23:23:58.098Z,9.40
2023-01-10T23:27:00.051Z,9.50
2023-01-10T23:30:01.956Z,9.50
2023-01-10T23:33:03.932Z,9.50
2023-01-10T23:36:06.220Z,9.50
2023-01-10T23:39:08.374Z,9.60
2023-01-10T23:42:10.793Z,9.60
2023-01-10T23:45:12.739Z,9.60
2023-01-10T23:48:15.185Z,9.60
2023-01-10T23:51:17.301Z,9.60
2023-01-10T23:54:19.208Z,9.60
2023-01-10T23:57:21.138Z,9.70
